Boyne City, MI (49712)

12:47 PM EDT on May 05, 2015 (GMT -0400)
3.4 mi SSW of Boyne City | | Change Station
CLOSE
Current Station
Personal Weather Station
Location: Boyne City, MI
Elevation: 820 ft
Nearby Weather Stations

Elev 820 ft 45.17 °N, 85.04 °W | Updated 38 seconds ago

Clear
Clear
66.6 °F
Feels Like 66.6 °F
N
3.4
Wind Variable Wind from ESE
Gusts 7.2 mph

Today
High -- | Low -- °F
--% Chance of Precip.
Yesterday
High -- | Low -- °F
Precip. -- in
6:23 AM 8:50 PM
Full, 97% visible
Pressure 30.37 in
Visibility 10.0 miles
Clouds Clear
Dew Point 36 °F
Humidity 32%
Rainfall 0.00 in
Snow Depth Not available.
UV 9 out of 12
Pollen 10.70 out of 12
Air Quality Not available.
Flu Activity Regional
METAR KCVX 051635Z AUTO 34005KT 10SM CLR 11/04 A3037 RMK AO2 T01100040

More Conditions Fewer Conditions

Pressure 30.37 in
Visibility 10.0 miles
Clouds Clear
Dew Point 36 °F
Humidity 32%
Rainfall 0.00 in
Snow Depth Not available.
UV 9 out of 12
Pollen 10.70 out of 12
Air Quality Not available.
Flu Activity Regional
METAR KCVX 051635Z AUTO 34005KT 10SM CLR 11/04 A3037 RMK AO2 T01100040

More Conditions Fewer Conditions

Nowcast | as of 12:00 PM EDT on May 5, 2015

At 1 PM...mostly clear. Temperature 57. Northwest winds 9 mph. At 3 PM...mostly clear. Temperature 60. West winds 12 mph. At 5 PM...mostly clear. Temperature 60. Northwest winds 9 mph. At 7 PM...mostly clear. Temperature 58. North winds 7 mph.

×

10-Day Weather Forecast

Almanac

Astronomy

May. 05, 2015 Rise Set
Actual Time
Civil Twilight
Nautical Twilight
Astronomical Twilight
Moon
Length of Visible Light
Length of Day
Tomorrow will be .
, % of the Moon is Illuminated

Today's Extremes

State Highs State Lows

Community

WunderPhotos

Upload Photos

1,818,937 photos uploaded!

WunderBlogs® & News

Nearby

Air Quality

  Air Quality AQ Index Pollutant
Not available.

Snow Depth

Station Depth Elevation

Earthquake Activity

City Distance Mag. Time & Date
Minimum magnitude displayed is 2.5.

Coastal Water Temperatures

Place Temperature

Stations

Nearby Weather Stations

Station Location Temp. Windchill Dew Point Humidity Wind Precip. Elev Updated Type